Terminal Aerodrome Forecast
Issued by NWS

Home | Current Version | Previous Version | Text Only | Print | Product List | Glossary On
Versions: 1 2 3 4 5 6 7 8 9 10 11 12 13 14 15
000
FTUS46 KMTR 011100
TAFMRY
TAF
KMRY 011120Z 0112/0212 VRB03KT P6SM OVC003
     FM011800 VRB03KT P6SM SCT005
     FM011900 28009KT P6SM SKC
     FM020300 26006KT P6SM OVC003=

USA.gov is the U.S. government's official web portal to all federal, state and local government web resources and services.